Flight Track Log - Related Links

Times and Time Zones

All times are in EDT time to prevent confusion due to time zone crossing. See the SKW4665 flight status page for this flight to view local times or setup timezone preferences in your user account.

Time Position Orientation Groundspeed Altitude Reporting Facility
EDT Latitude Longitude Course Direction KTS MPH feet Rate Location/Type
Wed 12:12:31 AM 40.7739 -111.9989 50° Northeast 176 203 5,000  Level Salt Lake Center
Wed 12:13:02 AM 40.7517 -112.0178 213° Southwest 197 227 6,200 2,440 Climbing Salt Lake Center
Wed 12:14:02 AM 40.7778 -112.0967 294° West 267 307 8,700 2,642 Climbing Salt Lake Center
Wed 12:14:51 AM 40.8297 -112.1303 334° Northwest 279 321 11,000 2,419 Climbing Salt Lake Center
Wed 12:16:00 AM 41.0303 -112.0863 37° Northeast  Level FlightAware Approximate
Wed 12:16:06 AM 40.9422 -112.1250 North 325 374 13,700  Level Salt Lake Center
Wed 12:17:00 AM 41.1128 -111.9704 50° Northeast  Level FlightAware Approximate
Wed 12:17:07 AM 41.0431 -112.1242 360° North 356 410 16,200  Level Salt Lake Center
Wed 12:18:08 AM 41.1478 -112.1222 North 372 428 18,800 2,459 Climbing Salt Lake Center
Wed 12:19:09 AM 41.2500 -112.1197 North 365 420 21,200 1,869 Climbing Salt Lake Center
Wed 12:20:10 AM 41.3589 -112.1178 North 389 448 22,600 1,574 Climbing Salt Lake Center
Wed 12:21:11 AM 41.4725 -112.1153 North 407 468 24,400 1,672 Climbing Salt Lake Center
Wed 12:22:12 AM 41.5850 -112.1133 North 406 467 26,000 787 Climbing Salt Lake Center
Wed 12:23:13 AM 41.7036 -112.1106 North 425 489 26,000  Level Salt Lake Center
Wed 12:24:14 AM 41.8261 -112.1078 North 439 505 26,000  Level Salt Lake Center
Wed 12:25:15 AM 41.9528 -112.1033 North 453 521 26,000  Level Salt Lake Center
Wed 12:26:16 AM 42.0814 -112.1019 360° North 461 531 26,000  Level Salt Lake Center
Wed 12:27:17 AM 42.2072 -112.0978 North 455 524 26,000  Level Salt Lake Center
Wed 12:28:18 AM 42.3308 -112.0958 North 445 512 26,000  Level Salt Lake Center
Wed 12:29:19 AM 42.4806 -112.0928 North 447 514 26,000 -1,131 Level Salt Lake Center
Wed 12:30:20 AM 42.6033 -112.0883 North 442 509 23,700 -2,656 Descending Salt Lake Center
Wed 12:31:21 AM 42.7283 -112.0881 360° North 445 512 20,600 -2,852 Descending Salt Lake Center
Wed 12:32:22 AM 42.8417 -112.0844 North 430 495 17,900 -2,607 Descending Salt Lake Center
Wed 12:33:23 AM 42.9458 -112.0786 North 405 466 15,300 -2,754 Descending Salt Lake Center
Wed 12:34:24 AM 43.0644 -112.0747 North 386 444 12,300 -1,918 Descending Salt Lake Center
Wed 12:35:25 AM 43.1550 -112.0908 353° North 346 398 11,400 -1,328 Descending Salt Lake Center
Wed 12:36:26 AM 43.2328 -112.1125 349° North 310 357 9,600 -1,820 Descending Salt Lake Center
Wed 12:37:27 AM 43.3181 -112.1356 349° North 295 339 7,700 -1,869 Descending Salt Lake Center

Login

Don't have an account? Register now (free) for customized features, flight alerts, and more!